Hlavní strana
METAR-TAF:

METAR-TAF

Letiště :

Cartersville Airport

Cartersville, Georgie, Spojené státy americké

zeměpisná šířka: 34-07-42N, zeměpisná délka: 084-50-50W, výška: 233 m

Aktuální stav počasí

Zpráva byla vytvořena před 16 minutami, v 17:10 UTC
vítr z různých směrů 3 kt
Teplota 9°C
Vlhkost vzduchu 76%
Tlak 1022 hPa
Viditelnost: 16.1 km
Skoro jasno ve výšce 1400 ft
Oblačno až skoro zataženo ve výšce 2800 ft
Zataženo ve výšce 4200 ft

METAR: KVPC 151710Z AUTO VRB03KT 10SM FEW014 BKN028 OVC042 09/05 A3017 RMK AO2 T00890050

Čas: 12:26 (17:26 UTC)


TAF: chybějící

Stav a předpovědi počasí z více než 4 000 letišť (zprávy METAR a TAF).

Červené a žluté tečky na mapě představují dostupné meteorologické stanice.

Když kurzor umístíte na tečku, zobrazí se název stanice.

Pak kliknutím zobrazíte stav a předpověď počasí.

Chcete-li změnit mapu, kliknutím na zelené tlačítko se znaménkem +mapu přiblížíte, kliknutím na zelené tlačítko se znaménkem – mapu oddálíte a kliknutím na zelené šipky přejdete na sousední mapy.


METAR-TAF: